OSS weather

Osh Airport
Osh, Osh Region, Kyrgyzstan

Public forecast

Using degrees Celsius for public forecast. Weather courtesy of forecast.io.

METAR (pilot weather report)

Retrieved 2019/07/18 18:30 UTC (0 seconds ago):

UCFO 181830Z 13003MPS 9999 NSC 24/12 Q1007 R12/0///95 NOSIG

TAF (pilot weather forecast)

Retrieved 2019/07/18 18:00 UTC (26 minutes ago):

TAF UCFO 181640Z 1818/1918 17003G08MPS 9999 FEW050CB TEMPO 1818/1824 VRB07G12MPS TS SCT030CB BECMG 1902/1904 27005MPS